sensor_id;sensor_type;location;lat;lon;timestamp;P1;durP1;ratioP1;P2;durP2;ratioP2
65238;SDS011;51827;51.186;6.926;2022-10-16T00:00:16;3.63;;;1.87;;
65238;SDS011;51827;51.186;6.926;2022-10-16T00:01:17;3.97;;;2.00;;
65238;SDS011;51827;51.186;6.926;2022-10-16T00:02:19;4.03;;;2.10;;
65238;SDS011;51827;51.186;6.926;2022-10-16T00:03:19;4.27;;;1.93;;
65238;SDS011;51827;51.186;6.926;2022-10-16T00:04:20;3.93;;;1.93;;
65238;SDS011;51827;51.186;6.926;2022-10-16T00:05:20;3.67;;;2.03;;
65238;SDS011;51827;51.186;6.926;2022-10-16T00:06:21;2.95;;;1.88;;
65238;SDS011;51827;51.186;6.926;2022-10-16T00:08:22;4.53;;;1.83;;
65238;SDS011;51827;51.186;6.926;2022-10-16T00:09:22;3.77;;;1.80;;
65238;SDS011;51827;51.186;6.926;2022-10-16T00:10:22;3.53;;;2.00;;
65238;SDS011;51827;51.186;6.926;2022-10-16T00:11:30;3.42;;;2.03;;
65238;SDS011;51827;51.186;6.926;2022-10-16T00:12:33;3.83;;;2.00;;
65238;SDS011;51827;51.186;6.926;2022-10-16T00:13:33;3.23;;;2.00;;
65238;SDS011;51827;51.186;6.926;2022-10-16T00:14:35;3.50;;;1.70;;
65238;SDS011;51827;51.186;6.926;2022-10-16T00:15:36;3.20;;;1.90;;
65238;SDS011;51827;51.186;6.926;2022-10-16T00:16:37;3.67;;;2.00;;
65238;SDS011;51827;51.186;6.926;2022-10-16T00:17:37;3.22;;;1.67;;
65238;SDS011;51827;51.186;6.926;2022-10-16T00:18:38;2.70;;;1.90;;
65238;SDS011;51827;51.186;6.926;2022-10-16T00:19:39;4.63;;;2.10;;
65238;SDS011;51827;51.186;6.926;2022-10-16T00:20:39;3.67;;;1.90;;
65238;SDS011;51827;51.186;6.926;2022-10-16T00:21:39;3.73;;;1.90;;
65238;SDS011;51827;51.186;6.926;2022-10-16T00:22:40;4.45;;;1.88;;
65238;SDS011;51827;51.186;6.926;2022-10-16T00:23:40;6.43;;;1.90;;
65238;SDS011;51827;51.186;6.926;2022-10-16T00:24:41;2.92;;;1.90;;
65238;SDS011;51827;51.186;6.926;2022-10-16T00:25:41;5.00;;;2.07;;
65238;SDS011;51827;51.186;6.926;2022-10-16T00:26:41;4.20;;;1.90;;
65238;SDS011;51827;51.186;6.926;2022-10-16T00:27:42;3.80;;;2.00;;
65238;SDS011;51827;51.186;6.926;2022-10-16T00:28:42;3.03;;;1.87;;
65238;SDS011;51827;51.186;6.926;2022-10-16T00:29:45;3.65;;;2.00;;
65238;SDS011;51827;51.186;6.926;2022-10-16T00:30:45;3.73;;;1.93;;
65238;SDS011;51827;51.186;6.926;2022-10-16T00:31:45;3.83;;;1.73;;
65238;SDS011;51827;51.186;6.926;2022-10-16T00:32:45;3.57;;;1.87;;
65238;SDS011;51827;51.186;6.926;2022-10-16T00:33:46;3.97;;;2.00;;
65238;SDS011;51827;51.186;6.926;2022-10-16T00:34:46;3.20;;;1.80;;
65238;SDS011;51827;51.186;6.926;2022-10-16T00:35:46;5.40;;;1.90;;
65238;SDS011;51827;51.186;6.926;2022-10-16T00:36:47;2.88;;;1.90;;
65238;SDS011;51827;51.186;6.926;2022-10-16T00:37:47;3.47;;;1.97;;
65238;SDS011;51827;51.186;6.926;2022-10-16T00:38:50;3.80;;;1.92;;
65238;SDS011;51827;51.186;6.926;2022-10-16T00:39:51;3.20;;;1.90;;
65238;SDS011;51827;51.186;6.926;2022-10-16T00:40:51;3.00;;;1.70;;
65238;SDS011;51827;51.186;6.926;2022-10-16T00:41:51;2.57;;;1.50;;
65238;SDS011;51827;51.186;6.926;2022-10-16T00:42:52;3.97;;;2.13;;
65238;SDS011;51827;51.186;6.926;2022-10-16T00:43:59;4.97;;;2.00;;
65238;SDS011;51827;51.186;6.926;2022-10-16T00:45:02;3.63;;;2.00;;
65238;SDS011;51827;51.186;6.926;2022-10-16T00:46:04;2.22;;;1.60;;
65238;SDS011;51827;51.186;6.926;2022-10-16T00:47:10;3.05;;;1.88;;
65238;SDS011;51827;51.186;6.926;2022-10-16T00:48:15;3.80;;;1.98;;
65238;SDS011;51827;51.186;6.926;2022-10-16T00:49:16;3.90;;;1.87;;
65238;SDS011;51827;51.186;6.926;2022-10-16T00:50:37;4.40;;;2.30;;
65238;SDS011;51827;51.186;6.926;2022-10-16T00:51:38;4.13;;;1.73;;
65238;SDS011;51827;51.186;6.926;2022-10-16T00:52:41;2.95;;;1.73;;
65238;SDS011;51827;51.186;6.926;2022-10-16T00:53:44;2.80;;;1.67;;
65238;SDS011;51827;51.186;6.926;2022-10-16T00:54:44;3.17;;;1.80;;
65238;SDS011;51827;51.186;6.926;2022-10-16T00:55:47;3.00;;;1.88;;
65238;SDS011;51827;51.186;6.926;2022-10-16T00:56:47;3.38;;;1.70;;
65238;SDS011;51827;51.186;6.926;2022-10-16T00:58:50;3.30;;;1.70;;
65238;SDS011;51827;51.186;6.926;2022-10-16T00:59:51;3.58;;;1.73;;
65238;SDS011;51827;51.186;6.926;2022-10-16T01:02:00;2.47;;;1.63;;
65238;SDS011;51827;51.186;6.926;2022-10-16T01:03:03;2.90;;;1.70;;
65238;SDS011;51827;51.186;6.926;2022-10-16T01:04:26;3.30;;;1.70;;
65238;SDS011;51827;51.186;6.926;2022-10-16T01:05:39;4.47;;;1.88;;
65238;SDS011;51827;51.186;6.926;2022-10-16T01:08:07;2.38;;;1.65;;
65238;SDS011;51827;51.186;6.926;2022-10-16T01:14:39;2.92;;;1.80;;
65238;SDS011;51827;51.186;6.926;2022-10-16T01:19:50;3.00;;;1.60;;
65238;SDS011;51827;51.186;6.926;2022-10-16T01:21:01;2.60;;;1.83;;
65238;SDS011;51827;51.186;6.926;2022-10-16T01:22:04;2.50;;;1.52;;
65238;SDS011;51827;51.186;6.926;2022-10-16T01:28:03;3.00;;;1.60;;
65238;SDS011;51827;51.186;6.926;2022-10-16T01:30:17;3.65;;;1.95;;
65238;SDS011;51827;51.186;6.926;2022-10-16T01:31:22;3.00;;;1.90;;
65238;SDS011;51827;51.186;6.926;2022-10-16T01:32:33;3.15;;;1.65;;
65238;SDS011;51827;51.186;6.926;2022-10-16T01:33:42;2.97;;;1.90;;
65238;SDS011;51827;51.186;6.926;2022-10-16T01:34:47;3.88;;;1.80;;
65238;SDS011;51827;51.186;6.926;2022-10-16T01:35:52;3.58;;;1.73;;
65238;SDS011;51827;51.186;6.926;2022-10-16T01:36:57;2.65;;;1.63;;
65238;SDS011;51827;51.186;6.926;2022-10-16T01:39:18;3.15;;;1.50;;
65238;SDS011;51827;51.186;6.926;2022-10-16T01:40:21;2.85;;;1.60;;
65238;SDS011;51827;51.186;6.926;2022-10-16T01:41:32;2.20;;;1.50;;
65238;SDS011;51827;51.186;6.926;2022-10-16T01:42:44;2.63;;;1.55;;
65238;SDS011;51827;51.186;6.926;2022-10-16T01:43:53;3.00;;;1.80;;
65238;SDS011;51827;51.186;6.926;2022-10-16T01:45:00;2.88;;;1.67;;
65238;SDS011;51827;51.186;6.926;2022-10-16T01:47:01;4.30;;;1.70;;
65238;SDS011;51827;51.186;6.926;2022-10-16T01:48:03;3.10;;;1.60;;
65238;SDS011;51827;51.186;6.926;2022-10-16T01:49:05;3.03;;;1.52;;
65238;SDS011;51827;51.186;6.926;2022-10-16T01:50:09;2.92;;;1.70;;
65238;SDS011;51827;51.186;6.926;2022-10-16T01:51:10;2.70;;;1.60;;
65238;SDS011;51827;51.186;6.926;2022-10-16T01:52:15;2.30;;;1.50;;
65238;SDS011;51827;51.186;6.926;2022-10-16T01:53:18;3.10;;;1.67;;
65238;SDS011;51827;51.186;6.926;2022-10-16T01:54:18;3.20;;;1.67;;
65238;SDS011;51827;51.186;6.926;2022-10-16T01:55:30;2.63;;;1.60;;
65238;SDS011;51827;51.186;6.926;2022-10-16T01:56:35;3.20;;;1.70;;
65238;SDS011;51827;51.186;6.926;2022-10-16T01:57:38;2.47;;;1.45;;
65238;SDS011;51827;51.186;6.926;2022-10-16T01:58:44;2.90;;;1.60;;
65238;SDS011;51827;51.186;6.926;2022-10-16T01:59:49;3.08;;;1.65;;
65238;SDS011;51827;51.186;6.926;2022-10-16T02:00:52;3.22;;;1.90;;
65238;SDS011;51827;51.186;6.926;2022-10-16T02:01:55;2.70;;;1.60;;
65238;SDS011;51827;51.186;6.926;2022-10-16T02:03:02;4.18;;;1.80;;
65238;SDS011;51827;51.186;6.926;2022-10-16T02:04:07;2.55;;;1.63;;
65238;SDS011;51827;51.186;6.926;2022-10-16T02:05:29;2.55;;;1.63;;
65238;SDS011;51827;51.186;6.926;2022-10-16T02:06:33;2.65;;;1.65;;
65238;SDS011;51827;51.186;6.926;2022-10-16T02:07:34;2.40;;;1.60;;
65238;SDS011;51827;51.186;6.926;2022-10-16T02:08:34;3.43;;;1.70;;
65238;SDS011;51827;51.186;6.926;2022-10-16T02:10:36;2.50;;;1.47;;
65238;SDS011;51827;51.186;6.926;2022-10-16T02:11:37;2.85;;;1.58;;
65238;SDS011;51827;51.186;6.926;2022-10-16T02:12:38;2.80;;;1.60;;
65238;SDS011;51827;51.186;6.926;2022-10-16T02:13:45;2.60;;;1.52;;
65238;SDS011;51827;51.186;6.926;2022-10-16T02:15:00;2.47;;;1.50;;
65238;SDS011;51827;51.186;6.926;2022-10-16T02:16:00;2.10;;;1.57;;
65238;SDS011;51827;51.186;6.926;2022-10-16T02:17:01;2.65;;;1.50;;
65238;SDS011;51827;51.186;6.926;2022-10-16T02:18:02;2.57;;;1.50;;
65238;SDS011;51827;51.186;6.926;2022-10-16T02:19:04;3.28;;;1.40;;
65238;SDS011;51827;51.186;6.926;2022-10-16T02:20:06;2.67;;;1.60;;
65238;SDS011;51827;51.186;6.926;2022-10-16T02:22:07;2.60;;;1.63;;
65238;SDS011;51827;51.186;6.926;2022-10-16T02:23:10;2.13;;;1.63;;
65238;SDS011;51827;51.186;6.926;2022-10-16T02:25:30;4.03;;;1.60;;
65238;SDS011;51827;51.186;6.926;2022-10-16T02:26:37;2.13;;;1.40;;
65238;SDS011;51827;51.186;6.926;2022-10-16T02:29:10;2.80;;;1.80;;
65238;SDS011;51827;51.186;6.926;2022-10-16T02:30:19;3.05;;;1.40;;
65238;SDS011;51827;51.186;6.926;2022-10-16T02:31:26;3.10;;;1.55;;
65238;SDS011;51827;51.186;6.926;2022-10-16T02:32:30;3.00;;;1.77;;
65238;SDS011;51827;51.186;6.926;2022-10-16T02:33:32;3.08;;;1.60;;
65238;SDS011;51827;51.186;6.926;2022-10-16T02:34:34;3.03;;;1.50;;
65238;SDS011;51827;51.186;6.926;2022-10-16T02:35:36;2.63;;;1.58;;
65238;SDS011;51827;51.186;6.926;2022-10-16T02:36:37;2.47;;;1.52;;
65238;SDS011;51827;51.186;6.926;2022-10-16T02:37:39;3.25;;;1.40;;
65238;SDS011;51827;51.186;6.926;2022-10-16T02:38:40;1.95;;;1.42;;
65238;SDS011;51827;51.186;6.926;2022-10-16T02:39:41;3.10;;;1.65;;
65238;SDS011;51827;51.186;6.926;2022-10-16T02:40:41;2.53;;;1.60;;
65238;SDS011;51827;51.186;6.926;2022-10-16T02:41:42;3.78;;;1.50;;
65238;SDS011;51827;51.186;6.926;2022-10-16T02:42:42;2.75;;;1.70;;
65238;SDS011;51827;51.186;6.926;2022-10-16T02:43:43;2.97;;;1.57;;
65238;SDS011;51827;51.186;6.926;2022-10-16T02:44:43;2.20;;;1.47;;
65238;SDS011;51827;51.186;6.926;2022-10-16T02:45:43;4.13;;;1.47;;
65238;SDS011;51827;51.186;6.926;2022-10-16T02:46:44;2.97;;;1.50;;
65238;SDS011;51827;51.186;6.926;2022-10-16T02:47:44;2.00;;;1.30;;
65238;SDS011;51827;51.186;6.926;2022-10-16T02:48:44;2.10;;;1.60;;
65238;SDS011;51827;51.186;6.926;2022-10-16T02:49:44;2.67;;;1.50;;
65238;SDS011;51827;51.186;6.926;2022-10-16T02:50:45;3.23;;;1.60;;
65238;SDS011;51827;51.186;6.926;2022-10-16T02:51:45;2.30;;;1.40;;
65238;SDS011;51827;51.186;6.926;2022-10-16T02:52:45;1.93;;;1.37;;
65238;SDS011;51827;51.186;6.926;2022-10-16T02:53:45;4.43;;;1.43;;
65238;SDS011;51827;51.186;6.926;2022-10-16T02:54:45;3.43;;;1.60;;
65238;SDS011;51827;51.186;6.926;2022-10-16T02:55:46;2.57;;;1.63;;
65238;SDS011;51827;51.186;6.926;2022-10-16T02:56:46;2.27;;;1.60;;
65238;SDS011;51827;51.186;6.926;2022-10-16T02:57:46;2.33;;;1.60;;
65238;SDS011;51827;51.186;6.926;2022-10-16T02:58:47;2.33;;;1.40;;
65238;SDS011;51827;51.186;6.926;2022-10-16T02:59:47;2.60;;;1.60;;
65238;SDS011;51827;51.186;6.926;2022-10-16T03:00:47;2.57;;;1.50;;
65238;SDS011;51827;51.186;6.926;2022-10-16T03:01:47;3.23;;;1.47;;
65238;SDS011;51827;51.186;6.926;2022-10-16T03:02:47;2.77;;;1.47;;
65238;SDS011;51827;51.186;6.926;2022-10-16T03:03:48;1.87;;;1.27;;
65238;SDS011;51827;51.186;6.926;2022-10-16T03:04:48;3.60;;;1.30;;
65238;SDS011;51827;51.186;6.926;2022-10-16T03:05:48;2.73;;;1.60;;
65238;SDS011;51827;51.186;6.926;2022-10-16T03:06:49;2.33;;;1.53;;
65238;SDS011;51827;51.186;6.926;2022-10-16T03:07:49;2.27;;;1.47;;
65238;SDS011;51827;51.186;6.926;2022-10-16T03:08:49;2.60;;;1.53;;
65238;SDS011;51827;51.186;6.926;2022-10-16T03:09:49;1.87;;;1.30;;
65238;SDS011;51827;51.186;6.926;2022-10-16T03:10:50;2.93;;;1.70;;
65238;SDS011;51827;51.186;6.926;2022-10-16T03:11:50;3.75;;;1.50;;
65238;SDS011;51827;51.186;6.926;2022-10-16T03:12:51;2.93;;;1.40;;
65238;SDS011;51827;51.186;6.926;2022-10-16T03:13:51;1.77;;;1.20;;
65238;SDS011;51827;51.186;6.926;2022-10-16T03:14:52;2.33;;;1.30;;
65238;SDS011;51827;51.186;6.926;2022-10-16T03:15:52;2.38;;;1.30;;
65238;SDS011;51827;51.186;6.926;2022-10-16T03:16:52;2.40;;;1.57;;
65238;SDS011;51827;51.186;6.926;2022-10-16T03:17:53;1.87;;;1.40;;
65238;SDS011;51827;51.186;6.926;2022-10-16T03:18:53;3.37;;;1.30;;
65238;SDS011;51827;51.186;6.926;2022-10-16T03:19:53;2.43;;;1.30;;
65238;SDS011;51827;51.186;6.926;2022-10-16T03:20:53;3.10;;;1.33;;
65238;SDS011;51827;51.186;6.926;2022-10-16T03:21:54;2.33;;;1.60;;
65238;SDS011;51827;51.186;6.926;2022-10-16T03:22:54;2.13;;;1.30;;
65238;SDS011;51827;51.186;6.926;2022-10-16T03:23:54;2.10;;;1.20;;
65238;SDS011;51827;51.186;6.926;2022-10-16T03:24:55;2.80;;;1.50;;
65238;SDS011;51827;51.186;6.926;2022-10-16T03:25:55;1.57;;;1.20;;
65238;SDS011;51827;51.186;6.926;2022-10-16T03:26:55;2.63;;;1.50;;
65238;SDS011;51827;51.186;6.926;2022-10-16T03:27:55;3.03;;;1.50;;
65238;SDS011;51827;51.186;6.926;2022-10-16T03:28:56;2.27;;;1.50;;
65238;SDS011;51827;51.186;6.926;2022-10-16T03:29:56;2.70;;;1.57;;
65238;SDS011;51827;51.186;6.926;2022-10-16T03:30:56;1.50;;;1.20;;
65238;SDS011;51827;51.186;6.926;2022-10-16T03:31:56;2.70;;;1.43;;
65238;SDS011;51827;51.186;6.926;2022-10-16T03:32:57;2.13;;;1.47;;
65238;SDS011;51827;51.186;6.926;2022-10-16T03:33:57;2.03;;;1.30;;
65238;SDS011;51827;51.186;6.926;2022-10-16T03:34:57;1.67;;;1.20;;
65238;SDS011;51827;51.186;6.926;2022-10-16T03:35:57;2.17;;;1.37;;
65238;SDS011;51827;51.186;6.926;2022-10-16T03:36:58;2.77;;;1.30;;
65238;SDS011;51827;51.186;6.926;2022-10-16T03:37:58;2.07;;;1.30;;
65238;SDS011;51827;51.186;6.926;2022-10-16T03:38:58;2.00;;;1.23;;
65238;SDS011;51827;51.186;6.926;2022-10-16T03:39:58;2.47;;;1.47;;
65238;SDS011;51827;51.186;6.926;2022-10-16T03:40:59;2.70;;;1.40;;
65238;SDS011;51827;51.186;6.926;2022-10-16T03:41:59;2.67;;;1.20;;
65238;SDS011;51827;51.186;6.926;2022-10-16T03:42:59;2.07;;;1.30;;
65238;SDS011;51827;51.186;6.926;2022-10-16T03:43:59;2.10;;;1.27;;
65238;SDS011;51827;51.186;6.926;2022-10-16T03:45:00;2.47;;;1.33;;
65238;SDS011;51827;51.186;6.926;2022-10-16T03:46:00;2.03;;;1.27;;
65238;SDS011;51827;51.186;6.926;2022-10-16T03:47:00;1.93;;;1.27;;
65238;SDS011;51827;51.186;6.926;2022-10-16T03:48:00;1.97;;;1.30;;
65238;SDS011;51827;51.186;6.926;2022-10-16T03:49:01;2.60;;;1.50;;
65238;SDS011;51827;51.186;6.926;2022-10-16T03:50:01;1.70;;;1.17;;
65238;SDS011;51827;51.186;6.926;2022-10-16T03:51:02;3.30;;;1.42;;
65238;SDS011;51827;51.186;6.926;2022-10-16T03:52:02;2.00;;;1.33;;
65238;SDS011;51827;51.186;6.926;2022-10-16T03:53:03;2.43;;;1.27;;
65238;SDS011;51827;51.186;6.926;2022-10-16T03:54:03;1.75;;;1.20;;
65238;SDS011;51827;51.186;6.926;2022-10-16T03:55:03;2.30;;;1.30;;
65238;SDS011;51827;51.186;6.926;2022-10-16T03:56:04;1.45;;;1.15;;
65238;SDS011;51827;51.186;6.926;2022-10-16T03:57:04;1.85;;;1.27;;
65238;SDS011;51827;51.186;6.926;2022-10-16T03:58:05;2.33;;;1.20;;
65238;SDS011;51827;51.186;6.926;2022-10-16T03:59:05;2.17;;;1.20;;
65238;SDS011;51827;51.186;6.926;2022-10-16T04:00:05;2.10;;;1.40;;
65238;SDS011;51827;51.186;6.926;2022-10-16T04:01:06;2.15;;;1.30;;
65238;SDS011;51827;51.186;6.926;2022-10-16T04:02:06;2.00;;;1.30;;
65238;SDS011;51827;51.186;6.926;2022-10-16T04:03:07;2.73;;;1.40;;
65238;SDS011;51827;51.186;6.926;2022-10-16T04:04:07;2.93;;;1.30;;
65238;SDS011;51827;51.186;6.926;2022-10-16T04:05:07;2.20;;;1.40;;
65238;SDS011;51827;51.186;6.926;2022-10-16T04:06:08;2.22;;;1.20;;
65238;SDS011;51827;51.186;6.926;2022-10-16T04:07:08;2.50;;;1.40;;
65238;SDS011;51827;51.186;6.926;2022-10-16T04:08:08;2.00;;;1.30;;
65238;SDS011;51827;51.186;6.926;2022-10-16T04:09:09;1.80;;;1.25;;
65238;SDS011;51827;51.186;6.926;2022-10-16T04:10:09;2.00;;;1.23;;
65238;SDS011;51827;51.186;6.926;2022-10-16T04:11:09;1.95;;;1.30;;
65238;SDS011;51827;51.186;6.926;2022-10-16T04:12:10;2.50;;;1.30;;
65238;SDS011;51827;51.186;6.926;2022-10-16T04:13:10;2.10;;;1.20;;
65238;SDS011;51827;51.186;6.926;2022-10-16T04:14:11;2.70;;;1.42;;
65238;SDS011;51827;51.186;6.926;2022-10-16T04:15:11;2.17;;;1.20;;
65238;SDS011;51827;51.186;6.926;2022-10-16T04:16:11;2.00;;;1.30;;
65238;SDS011;51827;51.186;6.926;2022-10-16T04:17:12;1.60;;;1.27;;
65238;SDS011;51827;51.186;6.926;2022-10-16T04:18:12;2.70;;;1.10;;
65238;SDS011;51827;51.186;6.926;2022-10-16T04:19:12;2.45;;;1.40;;
65238;SDS011;51827;51.186;6.926;2022-10-16T04:20:12;1.57;;;1.30;;
65238;SDS011;51827;51.186;6.926;2022-10-16T04:21:13;1.97;;;1.20;;
65238;SDS011;51827;51.186;6.926;2022-10-16T04:22:13;2.27;;;1.33;;
65238;SDS011;51827;51.186;6.926;2022-10-16T04:23:13;2.60;;;1.37;;
65238;SDS011;51827;51.186;6.926;2022-10-16T04:24:14;3.13;;;1.60;;
65238;SDS011;51827;51.186;6.926;2022-10-16T04:25:14;2.23;;;1.37;;
65238;SDS011;51827;51.186;6.926;2022-10-16T04:26:14;2.00;;;1.40;;
65238;SDS011;51827;51.186;6.926;2022-10-16T04:27:15;2.08;;;1.20;;
65238;SDS011;51827;51.186;6.926;2022-10-16T04:28:15;1.90;;;1.20;;
65238;SDS011;51827;51.186;6.926;2022-10-16T04:29:15;1.93;;;1.30;;
65238;SDS011;51827;51.186;6.926;2022-10-16T04:30:15;2.03;;;1.20;;
65238;SDS011;51827;51.186;6.926;2022-10-16T04:31:16;2.23;;;1.30;;
65238;SDS011;51827;51.186;6.926;2022-10-16T04:32:16;2.07;;;1.30;;
65238;SDS011;51827;51.186;6.926;2022-10-16T04:33:16;2.73;;;1.43;;
65238;SDS011;51827;51.186;6.926;2022-10-16T04:34:16;1.80;;;1.10;;
65238;SDS011;51827;51.186;6.926;2022-10-16T04:35:17;2.10;;;1.30;;
65238;SDS011;51827;51.186;6.926;2022-10-16T04:36:18;1.88;;;1.10;;
65238;SDS011;51827;51.186;6.926;2022-10-16T04:37:22;1.57;;;1.10;;
65238;SDS011;51827;51.186;6.926;2022-10-16T04:38:24;2.45;;;1.30;;
65238;SDS011;51827;51.186;6.926;2022-10-16T04:39:24;1.55;;;1.13;;
65238;SDS011;51827;51.186;6.926;2022-10-16T04:40:24;2.30;;;1.20;;
65238;SDS011;51827;51.186;6.926;2022-10-16T04:41:25;2.20;;;1.33;;
65238;SDS011;51827;51.186;6.926;2022-10-16T04:42:25;1.57;;;1.10;;
65238;SDS011;51827;51.186;6.926;2022-10-16T04:43:25;2.70;;;1.40;;
65238;SDS011;51827;51.186;6.926;2022-10-16T04:44:25;1.37;;;1.20;;
65238;SDS011;51827;51.186;6.926;2022-10-16T04:45:26;2.10;;;1.27;;
65238;SDS011;51827;51.186;6.926;2022-10-16T04:46:26;2.07;;;1.20;;
65238;SDS011;51827;51.186;6.926;2022-10-16T04:47:26;2.40;;;1.50;;
65238;SDS011;51827;51.186;6.926;2022-10-16T04:48:26;1.97;;;1.27;;
65238;SDS011;51827;51.186;6.926;2022-10-16T04:49:27;1.63;;;1.13;;
65238;SDS011;51827;51.186;6.926;2022-10-16T04:50:27;2.17;;;1.17;;
65238;SDS011;51827;51.186;6.926;2022-10-16T04:51:27;2.10;;;1.27;;
65238;SDS011;51827;51.186;6.926;2022-10-16T04:52:28;1.63;;;1.03;;
65238;SDS011;51827;51.186;6.926;2022-10-16T04:53:28;2.72;;;1.30;;
65238;SDS011;51827;51.186;6.926;2022-10-16T04:54:28;2.03;;;1.23;;
65238;SDS011;51827;51.186;6.926;2022-10-16T04:55:28;1.73;;;1.20;;
65238;SDS011;51827;51.186;6.926;2022-10-16T04:56:29;2.10;;;1.30;;
65238;SDS011;51827;51.186;6.926;2022-10-16T04:57:29;1.87;;;1.27;;
65238;SDS011;51827;51.186;6.926;2022-10-16T04:58:30;2.92;;;1.30;;
65238;SDS011;51827;51.186;6.926;2022-10-16T04:59:30;2.20;;;1.10;;
65238;SDS011;51827;51.186;6.926;2022-10-16T05:00:30;1.73;;;1.20;;
65238;SDS011;51827;51.186;6.926;2022-10-16T05:01:31;2.45;;;1.40;;
65238;SDS011;51827;51.186;6.926;2022-10-16T05:02:31;2.07;;;1.30;;
65238;SDS011;51827;51.186;6.926;2022-10-16T05:03:31;1.57;;;1.00;;
65238;SDS011;51827;51.186;6.926;2022-10-16T05:04:31;2.10;;;1.20;;
65238;SDS011;51827;51.186;6.926;2022-10-16T05:05:32;1.60;;;1.07;;
65238;SDS011;51827;51.186;6.926;2022-10-16T05:06:32;1.80;;;1.33;;
65238;SDS011;51827;51.186;6.926;2022-10-16T05:07:32;2.63;;;1.20;;
65238;SDS011;51827;51.186;6.926;2022-10-16T05:08:33;2.10;;;1.30;;
65238;SDS011;51827;51.186;6.926;2022-10-16T05:09:33;2.10;;;1.13;;
65238;SDS011;51827;51.186;6.926;2022-10-16T05:10:33;1.60;;;1.03;;
65238;SDS011;51827;51.186;6.926;2022-10-16T05:11:34;1.97;;;1.20;;
65238;SDS011;51827;51.186;6.926;2022-10-16T05:12:34;1.98;;;1.23;;
65238;SDS011;51827;51.186;6.926;2022-10-16T05:13:34;1.83;;;1.13;;
65238;SDS011;51827;51.186;6.926;2022-10-16T05:14:35;1.90;;;1.20;;
65238;SDS011;51827;51.186;6.926;2022-10-16T05:15:35;2.80;;;1.30;;
65238;SDS011;51827;51.186;6.926;2022-10-16T05:16:35;2.03;;;1.10;;
65238;SDS011;51827;51.186;6.926;2022-10-16T05:17:36;1.83;;;1.20;;
65238;SDS011;51827;51.186;6.926;2022-10-16T05:18:36;2.23;;;1.30;;
65238;SDS011;51827;51.186;6.926;2022-10-16T05:19:36;2.50;;;1.20;;
65238;SDS011;51827;51.186;6.926;2022-10-16T05:20:36;2.13;;;1.27;;
65238;SDS011;51827;51.186;6.926;2022-10-16T05:21:37;1.37;;;1.03;;
65238;SDS011;51827;51.186;6.926;2022-10-16T05:22:37;1.90;;;1.30;;
65238;SDS011;51827;51.186;6.926;2022-10-16T05:23:37;1.65;;;1.10;;
65238;SDS011;51827;51.186;6.926;2022-10-16T05:24:38;1.73;;;1.17;;
65238;SDS011;51827;51.186;6.926;2022-10-16T05:25:38;2.10;;;1.20;;
65238;SDS011;51827;51.186;6.926;2022-10-16T05:26:38;1.80;;;1.10;;
65238;SDS011;51827;51.186;6.926;2022-10-16T05:27:38;2.00;;;1.20;;
65238;SDS011;51827;51.186;6.926;2022-10-16T05:28:39;2.87;;;1.20;;
65238;SDS011;51827;51.186;6.926;2022-10-16T05:29:39;2.40;;;1.10;;
65238;SDS011;51827;51.186;6.926;2022-10-16T05:30:39;1.60;;;1.20;;
65238;SDS011;51827;51.186;6.926;2022-10-16T05:31:39;1.63;;;1.07;;
65238;SDS011;51827;51.186;6.926;2022-10-16T05:32:40;1.87;;;1.10;;
65238;SDS011;51827;51.186;6.926;2022-10-16T05:33:40;1.57;;;1.10;;
65238;SDS011;51827;51.186;6.926;2022-10-16T05:34:40;1.33;;;1.08;;
65238;SDS011;51827;51.186;6.926;2022-10-16T05:35:41;5.13;;;1.10;;
65238;SDS011;51827;51.186;6.926;2022-10-16T05:36:41;1.60;;;0.97;;
65238;SDS011;51827;51.186;6.926;2022-10-16T05:37:42;1.40;;;1.03;;
65238;SDS011;51827;51.186;6.926;2022-10-16T05:38:42;1.63;;;1.20;;
65238;SDS011;51827;51.186;6.926;2022-10-16T05:39:42;2.13;;;1.20;;
65238;SDS011;51827;51.186;6.926;2022-10-16T05:40:43;2.07;;;1.10;;
65238;SDS011;51827;51.186;6.926;2022-10-16T05:41:49;2.72;;;1.33;;
65238;SDS011;51827;51.186;6.926;2022-10-16T05:42:54;1.33;;;1.07;;
65238;SDS011;51827;51.186;6.926;2022-10-16T05:43:54;1.98;;;1.05;;
65238;SDS011;51827;51.186;6.926;2022-10-16T05:44:55;1.37;;;1.10;;
65238;SDS011;51827;51.186;6.926;2022-10-16T05:45:59;1.53;;;1.10;;
65238;SDS011;51827;51.186;6.926;2022-10-16T05:47:01;1.83;;;1.20;;
65238;SDS011;51827;51.186;6.926;2022-10-16T05:48:01;3.23;;;1.10;;
65238;SDS011;51827;51.186;6.926;2022-10-16T05:49:02;2.13;;;1.10;;
65238;SDS011;51827;51.186;6.926;2022-10-16T05:50:03;1.45;;;1.10;;
65238;SDS011;51827;51.186;6.926;2022-10-16T05:51:04;1.80;;;1.20;;
65238;SDS011;51827;51.186;6.926;2022-10-16T05:52:06;1.67;;;1.08;;
65238;SDS011;51827;51.186;6.926;2022-10-16T05:53:07;1.40;;;1.00;;
65238;SDS011;51827;51.186;6.926;2022-10-16T05:54:08;1.50;;;1.10;;
65238;SDS011;51827;51.186;6.926;2022-10-16T05:55:08;1.50;;;1.00;;
65238;SDS011;51827;51.186;6.926;2022-10-16T05:56:09;1.80;;;1.20;;
65238;SDS011;51827;51.186;6.926;2022-10-16T05:57:11;1.58;;;1.15;;
65238;SDS011;51827;51.186;6.926;2022-10-16T05:58:11;2.20;;;1.00;;
65238;SDS011;51827;51.186;6.926;2022-10-16T05:59:11;1.53;;;1.10;;
65238;SDS011;51827;51.186;6.926;2022-10-16T06:00:11;1.80;;;1.20;;
65238;SDS011;51827;51.186;6.926;2022-10-16T06:01:15;2.10;;;1.20;;
65238;SDS011;51827;51.186;6.926;2022-10-16T06:02:17;3.13;;;1.30;;
65238;SDS011;51827;51.186;6.926;2022-10-16T06:03:17;2.23;;;1.23;;
65238;SDS011;51827;51.186;6.926;2022-10-16T06:04:18;1.87;;;1.17;;
65238;SDS011;51827;51.186;6.926;2022-10-16T06:05:18;2.13;;;1.20;;
65238;SDS011;51827;51.186;6.926;2022-10-16T06:06:19;2.13;;;1.23;;
65238;SDS011;51827;51.186;6.926;2022-10-16T06:07:21;1.73;;;1.20;;
65238;SDS011;51827;51.186;6.926;2022-10-16T06:08:22;2.38;;;1.20;;
65238;SDS011;51827;51.186;6.926;2022-10-16T06:09:23;1.63;;;1.10;;
65238;SDS011;51827;51.186;6.926;2022-10-16T06:10:23;2.00;;;1.30;;
65238;SDS011;51827;51.186;6.926;2022-10-16T06:11:25;1.30;;;1.00;;
65238;SDS011;51827;51.186;6.926;2022-10-16T06:12:26;2.00;;;1.05;;
65238;SDS011;51827;51.186;6.926;2022-10-16T06:13:27;1.90;;;1.13;;
65238;SDS011;51827;51.186;6.926;2022-10-16T06:14:27;1.63;;;1.20;;
65238;SDS011;51827;51.186;6.926;2022-10-16T06:15:27;1.85;;;1.05;;
65238;SDS011;51827;51.186;6.926;2022-10-16T06:16:28;2.97;;;1.08;;
65238;SDS011;51827;51.186;6.926;2022-10-16T06:17:28;2.40;;;1.20;;
65238;SDS011;51827;51.186;6.926;2022-10-16T06:18:29;1.60;;;1.03;;
65238;SDS011;51827;51.186;6.926;2022-10-16T06:19:30;1.58;;;1.00;;
65238;SDS011;51827;51.186;6.926;2022-10-16T06:20:30;6.17;;;1.00;;
65238;SDS011;51827;51.186;6.926;2022-10-16T06:21:31;2.53;;;0.93;;
65238;SDS011;51827;51.186;6.926;2022-10-16T06:22:31;1.00;;;0.88;;
65238;SDS011;51827;51.186;6.926;2022-10-16T06:23:31;2.73;;;1.17;;
65238;SDS011;51827;51.186;6.926;2022-10-16T06:24:32;3.10;;;1.30;;
65238;SDS011;51827;51.186;6.926;2022-10-16T06:25:32;1.93;;;1.20;;
65238;SDS011;51827;51.186;6.926;2022-10-16T06:26:32;2.43;;;1.27;;
65238;SDS011;51827;51.186;6.926;2022-10-16T06:27:32;1.70;;;1.10;;
65238;SDS011;51827;51.186;6.926;2022-10-16T06:28:32;2.20;;;1.37;;
65238;SDS011;51827;51.186;6.926;2022-10-16T06:29:33;1.83;;;1.13;;
65238;SDS011;51827;51.186;6.926;2022-10-16T06:30:33;1.30;;;1.00;;
65238;SDS011;51827;51.186;6.926;2022-10-16T06:31:33;4.70;;;1.10;;
65238;SDS011;51827;51.186;6.926;2022-10-16T06:32:34;2.17;;;1.17;;
65238;SDS011;51827;51.186;6.926;2022-10-16T06:33:34;1.80;;;1.00;;
65238;SDS011;51827;51.186;6.926;2022-10-16T06:35:35;1.70;;;1.00;;
65238;SDS011;51827;51.186;6.926;2022-10-16T06:36:36;2.53;;;1.20;;
65238;SDS011;51827;51.186;6.926;2022-10-16T06:37:37;1.45;;;1.00;;
65238;SDS011;51827;51.186;6.926;2022-10-16T06:38:37;3.57;;;1.10;;